Time;durP1;ratioP1;P1;durP2;ratioP2;P2;SDS_P1;SDS_P2;PMS_P1;PMS_P2;Temp;Humidity;BMP_temperature;BMP_pressure;BME280_temperature;BME280_humidity;BME280_pressure;Samples;Min_cycle;Max_cycle;Signal;HPM_P1;HPM_P2
2022/11/29 00:01:04;;;;;;;17.03;10.80;;;9.80;99.90;;;;;;7399192;19;20147;-86
2022/11/29 00:03:30;;;;;;;12.60;8.87;;;9.80;99.90;;;;;;7402432;19;20139;-87
2022/11/29 00:06:02;;;;;;;12.87;8.93;;;9.70;99.90;;;;;;7396468;19;20145;-87
2022/11/29 00:08:28;;;;;;;11.50;8.50;;;9.80;99.90;;;;;;7400964;19;20139;-88
2022/11/29 00:10:54;;;;;;;10.53;7.93;;;9.80;99.90;;;;;;7400313;19;20899;-87
2022/11/29 00:13:19;;;;;;;11.90;8.00;;;9.80;99.90;;;;;;7402441;19;20149;-86
2022/11/29 00:15:45;;;;;;;11.73;7.93;;;9.90;99.90;;;;;;7400463;19;20602;-86
2022/11/29 00:18:11;;;;;;;9.77;7.30;;;9.80;99.90;;;;;;7403110;19;20142;-84
2022/11/29 00:20:37;;;;;;;11.77;7.93;;;9.90;99.90;;;;;;7402149;19;20570;-87
2022/11/29 00:23:03;;;;;;;10.53;7.97;;;9.90;99.90;;;;;;7402004;19;20159;-87
2022/11/29 00:25:29;;;;;;;10.97;7.93;;;10.00;99.90;;;;;;7397448;19;20150;-82
2022/11/29 00:27:54;;;;;;;11.93;8.03;;;9.90;99.90;;;;;;7400200;19;20179;-87
2022/11/29 00:30:20;;;;;;;13.00;8.40;;;10.10;99.90;;;;;;7399743;19;20147;-87
2022/11/29 00:32:46;;;;;;;10.67;8.57;;;9.90;99.90;;;;;;7400745;19;20146;-87
2022/11/29 00:35:12;;;;;;;12.00;7.97;;;9.90;99.90;;;;;;7400938;19;20139;-86
2022/11/29 00:37:38;;;;;;;9.90;7.40;;;9.90;99.90;;;;;;7400145;19;20166;-87
2022/11/29 00:40:06;;;;;;;11.17;7.87;;;9.90;99.90;;;;;;7401128;19;20139;-87
2022/11/29 00:42:32;;;;;;;11.07;7.97;;;9.90;99.90;;;;;;7399773;19;20243;-86
2022/11/29 00:44:58;;;;;;;10.33;8.33;;;9.90;99.90;;;;;;7395834;19;20141;-87
2022/11/29 00:47:24;;;;;;;11.13;7.83;;;9.90;99.90;;;;;;7397710;19;20123;-88
2022/11/29 00:49:49;;;;;;;10.77;7.57;;;9.90;99.90;;;;;;7400923;19;20235;-86
2022/11/29 00:52:15;;;;;;;8.63;7.30;;;9.90;99.90;;;;;;7399572;19;20137;-85
2022/11/29 00:54:41;;;;;;;11.03;7.60;;;9.90;99.90;;;;;;7398171;19;20146;-87
2022/11/29 00:57:06;;;;;;;10.80;8.03;;;9.90;99.90;;;;;;7397956;19;20130;-86
2022/11/29 00:59:32;;;;;;;12.60;8.33;;;9.90;99.90;;;;;;7397261;19;20147;-84
2022/11/29 01:01:58;;;;;;;10.83;7.97;;;9.90;99.90;;;;;;7395164;19;20134;-87
2022/11/29 01:04:24;;;;;;;10.97;7.97;;;9.90;99.90;;;;;;7396277;19;20139;-83
2022/11/29 01:06:51;;;;;;;11.67;7.53;;;9.90;99.90;;;;;;7397478;19;20162;-85
2022/11/29 01:09:17;;;;;;;11.77;7.73;;;9.90;99.90;;;;;;7397266;19;20142;-87
2022/11/29 01:11:42;;;;;;;10.87;7.73;;;9.90;99.90;;;;;;7400984;19;20139;-88
2022/11/29 01:14:11;;;;;;;11.67;7.63;;;9.90;99.90;;;;;;7396395;19;20130;-87
2022/11/29 01:16:39;;;;;;;9.33;7.63;;;9.90;99.90;;;;;;7395740;19;20154;-88
2022/11/29 01:19:06;;;;;;;10.00;7.80;;;9.90;99.90;;;;;;7396929;19;20163;-88
2022/11/29 01:21:32;;;;;;;10.13;6.63;;;9.90;99.90;;;;;;7397808;19;20135;-86
2022/11/29 01:23:59;;;;;;;9.37;7.20;;;9.90;99.90;;;;;;7396558;19;20567;-86
2022/11/29 01:26:27;;;;;;;9.97;7.23;;;10.00;99.90;;;;;;7397553;19;20182;-87
2022/11/29 01:28:54;;;;;;;9.70;7.13;;;9.90;99.90;;;;;;7398258;19;20142;-87
2022/11/29 01:31:23;;;;;;;10.43;7.67;;;10.00;99.90;;;;;;7398458;19;20135;-87
2022/11/29 01:33:55;;;;;;;9.30;7.23;;;10.00;99.90;;;;;;7395581;19;20145;-85
2022/11/29 01:36:22;;;;;;;8.57;6.73;;;10.00;99.90;;;;;;7398938;19;20141;-84
2022/11/29 01:38:48;;;;;;;10.67;7.27;;;10.00;99.90;;;;;;7396711;19;20489;-86
2022/11/29 01:41:17;;;;;;;10.00;7.20;;;10.00;99.90;;;;;;7397441;19;20169;-82
2022/11/29 01:44:11;;;;;;;9.27;7.30;;;9.90;99.90;;;;;;7393988;19;20154;-87
2022/11/29 01:46:39;;;;;;;12.03;7.87;;;10.00;99.90;;;;;;7393335;19;20135;-84
2022/11/29 01:49:20;;;;;;;12.07;8.13;;;10.00;99.90;;;;;;7398300;19;20127;-85
2022/11/29 01:51:50;;;;;;;16.27;9.73;;;9.90;99.90;;;;;;7398608;19;20138;-86
2022/11/29 01:54:17;;;;;;;13.47;9.17;;;9.90;99.90;;;;;;7396758;19;20146;-83
2022/11/29 01:56:45;;;;;;;12.10;8.80;;;9.90;99.90;;;;;;7396981;19;20161;-87
2022/11/29 01:59:14;;;;;;;11.43;8.40;;;10.00;99.90;;;;;;7399612;19;20501;-88
2022/11/29 02:01:40;;;;;;;9.20;7.33;;;10.00;99.90;;;;;;7397496;19;20477;-76
2022/11/29 02:04:07;;;;;;;8.83;6.83;;;10.00;99.90;;;;;;7394108;19;20135;-77
2022/11/29 02:06:34;;;;;;;9.57;7.27;;;10.00;99.90;;;;;;7396197;19;20139;-77
2022/11/29 02:09:00;;;;;;;10.60;7.13;;;10.00;99.90;;;;;;7397151;19;20161;-77
2022/11/29 02:11:55;;;;;;;9.10;6.90;;;10.10;99.90;;;;;;7395321;19;20154;-77
2022/11/29 02:14:48;;;;;;;8.27;6.73;;;10.10;99.90;;;;;;7397407;19;20127;-77
2022/11/29 02:17:14;;;;;;;9.50;6.50;;;10.10;99.90;;;;;;7394745;19;20126;-77
2022/11/29 02:20:05;;;;;;;9.17;6.67;;;10.00;99.90;;;;;;7396752;19;20158;-77
2022/11/29 02:22:49;;;;;;;8.93;6.33;;;10.00;99.90;;;;;;7392719;19;20517;-78
2022/11/29 02:25:52;;;;;;;7.03;6.07;;;10.10;99.90;;;;;;7395874;19;20633;-77
2022/11/29 02:28:36;;;;;;;9.43;6.33;;;10.00;99.90;;;;;;7396228;19;20154;-78
2022/11/29 02:31:41;;;;;;;8.87;6.60;;;10.00;99.90;;;;;;7395653;19;20143;-77
2022/11/29 02:34:39;;;;;;;7.77;6.30;;;10.00;99.90;;;;;;7394567;19;20154;-79
2022/11/29 02:37:57;;;;;;;8.13;6.00;;;10.00;99.90;;;;;;7392629;19;20645;-76
2022/11/29 02:41:00;;;;;;;8.60;5.70;;;10.00;99.90;;;;;;7394677;19;20130;-77
2022/11/29 02:43:41;;;;;;;7.50;5.63;;;10.00;99.90;;;;;;7395026;19;20607;-78
2022/11/29 02:46:32;;;;;;;7.77;6.27;;;10.00;99.90;;;;;;7392607;19;20158;-77
2022/11/29 02:49:25;;;;;;;8.13;6.13;;;10.00;99.90;;;;;;7393728;19;20142;-77
2022/11/29 02:51:59;;;;;;;7.40;6.63;;;10.00;99.90;;;;;;7397166;19;20134;-78
2022/11/29 02:54:55;;;;;;;7.03;5.90;;;10.00;99.90;;;;;;7395629;19;20622;-78
2022/11/29 02:57:41;;;;;;;7.43;6.23;;;10.10;99.90;;;;;;7394043;19;20724;-78
2022/11/29 03:00:19;;;;;;;7.23;5.73;;;10.10;99.90;;;;;;7394819;19;20127;-77
2022/11/29 03:03:05;;;;;;;6.97;5.97;;;10.10;99.90;;;;;;7396154;19;20130;-78
2022/11/29 03:05:44;;;;;;;9.90;6.60;;;10.00;99.90;;;;;;7393070;19;20206;-77
2022/11/29 03:08:21;;;;;;;8.37;6.40;;;10.10;99.90;;;;;;7392894;19;20213;-77
2022/11/29 03:11:03;;;;;;;9.07;6.60;;;9.90;99.90;;;;;;7395990;19;20136;-76
2022/11/29 03:13:59;;;;;;;9.03;7.00;;;9.70;99.90;;;;;;7392869;19;20217;-77
2022/11/29 03:16:46;;;;;;;9.93;7.50;;;9.70;99.90;;;;;;7394344;19;20583;-77
2022/11/29 03:19:32;;;;;;;10.70;7.43;;;9.80;99.90;;;;;;7394347;19;20157;-77
2022/11/29 03:22:16;;;;;;;12.07;8.17;;;9.90;99.90;;;;;;7392900;19;20504;-77
2022/11/29 03:24:53;;;;;;;11.60;7.53;;;9.90;99.90;;;;;;7398278;19;20131;-77
2022/11/29 03:27:28;;;;;;;10.10;7.13;;;9.90;99.90;;;;;;7401287;19;20595;-77
2022/11/29 03:30:01;;;;;;;10.57;7.77;;;10.00;99.90;;;;;;7402095;19;20137;-77
2022/11/29 03:32:37;;;;;;;8.50;7.13;;;9.90;99.90;;;;;;7402027;19;20614;-77
2022/11/29 03:35:13;;;;;;;8.33;6.63;;;9.90;99.90;;;;;;7397807;19;20138;-76
2022/11/29 03:38:13;;;;;;;12.93;7.30;;;9.70;99.90;;;;;;7401648;19;20149;-77
2022/11/29 03:40:50;;;;;;;7.53;6.33;;;9.20;99.90;;;;;;7401199;19;20579;-77
2022/11/29 03:43:26;;;;;;;7.60;6.17;;;9.30;99.90;;;;;;7399825;19;20170;-77
2022/11/29 03:46:03;;;;;;;8.53;6.60;;;9.60;99.90;;;;;;7398783;19;20171;-77
2022/11/29 03:48:35;;;;;;;8.63;6.40;;;9.70;99.90;;;;;;7402350;19;20149;-77
2022/11/29 03:51:18;;;;;;;8.40;6.27;;;9.80;99.90;;;;;;7403092;19;20611;-77
2022/11/29 03:53:50;;;;;;;6.30;5.13;;;9.90;99.90;;;;;;7400297;19;20186;-77
2022/11/29 03:56:31;;;;;;;6.97;5.30;;;10.00;99.90;;;;;;7399238;19;20177;-77
2022/11/29 03:59:21;;;;;;;7.30;5.50;;;10.00;99.90;;;;;;7399687;19;20799;-78
2022/11/29 04:02:22;;;;;;;7.53;5.80;;;10.00;99.90;;;;;;7401140;19;20234;-77
2022/11/29 04:05:02;;;;;;;8.50;5.90;;;10.00;99.90;;;;;;7399613;19;20135;-76
2022/11/29 04:07:54;;;;;;;7.53;5.60;;;10.00;99.90;;;;;;7403085;19;20130;-78
2022/11/29 04:10:29;;;;;;;7.23;5.03;;;10.00;99.90;;;;;;7400230;19;20163;-78
2022/11/29 04:13:17;;;;;;;7.10;5.47;;;10.00;99.90;;;;;;7401144;19;20606;-78
2022/11/29 04:16:09;;;;;;;8.33;5.60;;;10.00;99.90;;;;;;7400750;19;20131;-77
2022/11/29 04:18:44;;;;;;;8.10;5.27;;;10.00;99.90;;;;;;7401402;19;20531;-77
2022/11/29 04:21:36;;;;;;;6.97;5.37;;;9.90;99.90;;;;;;7400557;19;20130;-77
2022/11/29 04:24:39;;;;;;;8.47;6.03;;;10.00;99.90;;;;;;7400687;19;20147;-78
2022/11/29 04:27:31;;;;;;;11.50;6.60;;;10.00;99.90;;;;;;7401807;19;20186;-78
2022/11/29 04:30:16;;;;;;;9.33;6.33;;;10.00;99.90;;;;;;7400105;19;20141;-76
2022/11/29 04:32:56;;;;;;;9.50;6.63;;;10.10;99.90;;;;;;7399343;19;20134;-78
2022/11/29 04:35:22;;;;;;;6.57;5.80;;;10.10;99.90;;;;;;7402140;19;20512;-77
2022/11/29 04:38:21;;;;;;;7.93;6.27;;;10.10;99.90;;;;;;7400122;19;20155;-76
2022/11/29 04:41:01;;;;;;;8.17;6.07;;;10.10;99.90;;;;;;7400942;19;20810;-77
2022/11/29 04:43:57;;;;;;;8.87;6.10;;;9.90;99.90;;;;;;7399194;19;20174;-76
2022/11/29 04:47:00;;;;;;;7.17;6.13;;;9.90;99.90;;;;;;7398158;19;20222;-77
2022/11/29 04:49:48;;;;;;;7.87;5.93;;;10.00;99.90;;;;;;7400285;19;20134;-78
2022/11/29 04:52:37;;;;;;;8.37;6.20;;;9.90;99.90;;;;;;7401270;19;20139;-77
2022/11/29 04:55:30;;;;;;;9.13;6.37;;;9.70;99.90;;;;;;7397838;19;20171;-77
2022/11/29 04:58:14;;;;;;;6.73;4.10;;;9.80;99.90;;;;;;7398396;19;20149;-77
2022/11/29 05:01:08;;;;;;;5.27;3.70;;;9.90;99.90;;;;;;7398476;19;20154;-77
2022/11/29 05:04:16;;;;;;;6.37;3.67;;;10.00;99.90;;;;;;7396996;19;20141;-77
2022/11/29 05:06:54;;;;;;;6.63;3.20;;;10.00;99.90;;;;;;7395712;19;20244;-77
2022/11/29 05:09:23;;;;;;;3.43;2.73;;;10.30;99.90;;;;;;7398258;19;20228;-77
2022/11/29 05:12:11;;;;;;;5.67;3.60;;;10.10;99.90;;;;;;7401150;19;20127;-77
2022/11/29 05:14:59;;;;;;;3.27;2.67;;;10.10;99.90;;;;;;7400108;19;20172;-77
2022/11/29 05:17:34;;;;;;;4.07;2.97;;;9.90;99.90;;;;;;7397778;19;20154;-77
2022/11/29 05:20:13;;;;;;;3.47;2.60;;;10.00;99.90;;;;;;7398869;19;20142;-78
2022/11/29 05:23:11;;;;;;;3.73;2.37;;;10.00;99.90;;;;;;7400249;19;20131;-77
2022/11/29 05:25:41;;;;;;;3.60;2.20;;;10.00;99.90;;;;;;7395819;19;20135;-76
2022/11/29 05:28:25;;;;;;;3.50;2.33;;;10.00;99.90;;;;;;7396988;19;20478;-77
2022/11/29 05:31:16;;;;;;;4.07;2.53;;;10.00;99.90;;;;;;7399818;19;20160;-76
2022/11/29 05:34:08;;;;;;;2.33;2.13;;;10.00;99.90;;;;;;7398103;19;20155;-77
2022/11/29 05:36:43;;;;;;;5.80;2.73;;;9.80;99.90;;;;;;7400037;19;20630;-77
2022/11/29 05:39:36;;;;;;;2.67;2.40;;;10.00;99.90;;;;;;7397475;19;20503;-77
2022/11/29 05:42:10;;;;;;;4.97;2.60;;;9.80;99.90;;;;;;7396641;19;20139;-77
2022/11/29 05:44:44;;;;;;;2.40;2.20;;;9.80;99.90;;;;;;7394696;19;20142;-78
2022/11/29 05:47:18;;;;;;;2.50;2.17;;;9.60;99.90;;;;;;7397124;19;20138;-77
2022/11/29 05:49:59;;;;;;;5.13;2.70;;;9.60;99.90;;;;;;7396671;19;20894;-77
2022/11/29 05:53:03;;;;;;;2.50;2.20;;;9.60;99.90;;;;;;7399494;19;20142;-77
2022/11/29 05:55:56;;;;;;;2.47;2.13;;;9.70;99.90;;;;;;7394536;19;20174;-78
2022/11/29 05:58:46;;;;;;;5.53;3.20;;;9.90;99.90;;;;;;7396196;19;20605;-76
2022/11/29 06:01:27;;;;;;;3.30;2.30;;;9.80;99.90;;;;;;7397019;19;20158;-77
2022/11/29 06:03:58;;;;;;;2.53;2.00;;;9.80;99.90;;;;;;7399044;19;20616;-76
2022/11/29 06:06:58;;;;;;;2.10;1.90;;;9.80;99.90;;;;;;7393179;19;20161;-78
2022/11/29 06:09:34;;;;;;;2.20;1.90;;;9.80;99.90;;;;;;7395419;19;20486;-77
2022/11/29 06:12:15;;;;;;;3.17;2.33;;;9.80;99.90;;;;;;7397155;19;20217;-78
2022/11/29 06:14:48;;;;;;;2.93;2.20;;;9.80;99.90;;;;;;7395030;19;20150;-78
2022/11/29 06:17:24;;;;;;;3.13;2.13;;;10.00;99.90;;;;;;7398067;19;20150;-76
2022/11/29 06:20:20;;;;;;;2.93;2.30;;;10.10;99.90;;;;;;7397420;19;20608;-76
2022/11/29 06:23:15;;;;;;;2.73;2.43;;;9.90;99.90;;;;;;7396864;19;20137;-77
2022/11/29 06:25:57;;;;;;;2.83;2.33;;;9.90;99.90;;;;;;7392181;19;20634;-76
2022/11/29 06:28:44;;;;;;;2.30;2.10;;;10.00;99.90;;;;;;7398025;19;20145;-75
2022/11/29 06:31:24;;;;;;;4.40;2.40;;;10.20;99.90;;;;;;7394484;19;20670;-76
2022/11/29 06:34:11;;;;;;;3.87;2.40;;;10.20;99.90;;;;;;7394751;19;20134;-78
2022/11/29 06:36:49;;;;;;;3.60;3.10;;;10.10;99.90;;;;;;7393010;19;20661;-76
2022/11/29 06:39:15;;;;;;;3.90;3.17;;;10.00;99.90;;;;;;7392888;19;20598;-77
2022/11/29 06:41:41;;;;;;;3.87;2.77;;;10.10;99.90;;;;;;7397182;19;20138;-76
2022/11/29 06:44:09;;;;;;;2.77;2.53;;;10.00;99.90;;;;;;7391677;19;20200;-78
2022/11/29 06:47:00;;;;;;;2.93;2.60;;;10.10;99.90;;;;;;7392966;19;20151;-79
2022/11/29 06:49:37;;;;;;;3.60;2.63;;;10.00;99.90;;;;;;7394162;19;20587;-77
2022/11/29 06:52:12;;;;;;;3.67;2.83;;;9.90;99.90;;;;;;7393141;19;20631;-76
2022/11/29 06:54:50;;;;;;;3.23;2.80;;;10.00;99.90;;;;;;7392228;19;20284;-77
2022/11/29 06:57:33;;;;;;;3.30;3.00;;;10.10;99.90;;;;;;7393766;19;20482;-77
2022/11/29 07:00:21;;;;;;;5.63;3.53;;;10.10;99.90;;;;;;7392939;19;20131;-77
2022/11/29 07:02:53;;;;;;;4.57;3.27;;;10.10;99.90;;;;;;7395956;19;20147;-77
2022/11/29 07:05:29;;;;;;;6.37;4.30;;;10.10;99.90;;;;;;7395290;19;20126;-76
2022/11/29 07:08:11;;;;;;;3.57;3.00;;;10.10;99.90;;;;;;7393996;19;20234;-76
2022/11/29 07:10:39;;;;;;;5.83;3.47;;;10.20;99.90;;;;;;7394752;19;20156;-76
2022/11/29 07:13:05;;;;;;;8.03;3.80;;;10.10;99.90;;;;;;7396466;19;20138;-77
2022/11/29 07:15:33;;;;;;;4.00;3.30;;;10.20;99.90;;;;;;7399164;19;20134;-78
2022/11/29 07:18:10;;;;;;;3.77;3.20;;;10.20;99.90;;;;;;7390290;19;20134;-76
2022/11/29 07:21:00;;;;;;;4.77;3.80;;;10.20;99.90;;;;;;7390660;19;20126;-76
2022/11/29 07:23:34;;;;;;;5.33;3.37;;;10.20;99.90;;;;;;7386387;19;20155;-77
2022/11/29 07:26:18;;;;;;;4.00;3.10;;;10.20;99.90;;;;;;7385004;19;20150;-76
2022/11/29 07:29:21;;;;;;;5.23;3.90;;;10.20;99.90;;;;;;7389362;19;20141;-77
2022/11/29 07:31:59;;;;;;;4.50;3.40;;;10.30;99.90;;;;;;7388114;19;20145;-77
2022/11/29 07:34:35;;;;;;;4.50;3.73;;;10.30;99.90;;;;;;7388879;19;20152;-76
2022/11/29 07:37:22;;;;;;;4.23;3.10;;;10.40;99.90;;;;;;7388906;19;20189;-75
2022/11/29 07:39:58;;;;;;;4.10;3.70;;;10.20;99.90;;;;;;7387023;19;20139;-76
2022/11/29 07:43:01;;;;;;;4.50;3.30;;;10.20;99.90;;;;;;7389752;19;20150;-76
2022/11/29 07:45:35;;;;;;;3.90;3.10;;;10.20;99.90;;;;;;7385826;19;20150;-75
2022/11/29 07:48:01;;;;;;;3.10;2.80;;;10.20;99.90;;;;;;7387729;19;20131;-77
2022/11/29 07:50:28;;;;;;;3.50;3.20;;;10.20;99.90;;;;;;7389495;19;20503;-76
2022/11/29 07:52:54;;;;;;;3.33;2.83;;;10.20;99.90;;;;;;7392091;19;20197;-76
2022/11/29 07:55:23;;;;;;;3.57;2.50;;;10.30;99.90;;;;;;7389053;19;20643;-75
2022/11/29 07:57:50;;;;;;;3.70;3.13;;;10.20;99.90;;;;;;7389157;19;20146;-75
2022/11/29 08:00:17;;;;;;;3.00;2.70;;;10.20;99.90;;;;;;7391987;19;20166;-77
2022/11/29 08:02:43;;;;;;;3.27;2.53;;;10.20;99.90;;;;;;7389356;19;20165;-75
2022/11/29 08:05:10;;;;;;;3.60;2.77;;;10.20;99.90;;;;;;7389012;19;20631;-75
2022/11/29 08:07:38;;;;;;;3.23;2.53;;;10.20;99.90;;;;;;7389109;19;20151;-75
2022/11/29 08:10:08;;;;;;;4.00;3.13;;;10.20;99.90;;;;;;7390797;19;20198;-76
2022/11/29 08:12:33;;;;;;;4.27;3.20;;;10.20;99.90;;;;;;7397792;19;20200;-75
2022/11/29 08:14:59;;;;;;;3.63;2.97;;;10.30;99.90;;;;;;7396950;19;20158;-76
2022/11/29 08:17:25;;;;;;;3.10;2.80;;;10.30;99.90;;;;;;7397506;19;20160;-75
2022/11/29 08:19:51;;;;;;;2.50;2.30;;;10.30;99.90;;;;;;7397252;19;20150;-76
2022/11/29 08:22:20;;;;;;;3.07;2.60;;;10.20;99.90;;;;;;7398811;19;20217;-78
2022/11/29 08:24:51;;;;;;;3.20;2.60;;;10.10;99.90;;;;;;7394570;19;20468;-76
2022/11/29 08:27:20;;;;;;;2.83;2.40;;;10.20;99.90;;;;;;7396261;19;20134;-75
2022/11/29 08:29:46;;;;;;;2.90;2.47;;;10.30;99.90;;;;;;7396879;19;20624;-75
2022/11/29 08:32:11;;;;;;;3.43;2.60;;;10.20;99.90;;;;;;7397092;19;20138;-75
2022/11/29 08:34:37;;;;;;;4.10;3.50;;;10.10;99.90;;;;;;7396373;19;20178;-76
2022/11/29 08:37:03;;;;;;;6.43;4.87;;;10.20;99.90;;;;;;7396934;19;20139;-75
2022/11/29 08:39:29;;;;;;;7.90;3.87;;;10.10;99.90;;;;;;7395769;19;20161;-75
2022/11/29 08:41:55;;;;;;;5.03;3.63;;;10.20;99.90;;;;;;7397281;19;20157;-76
2022/11/29 08:44:20;;;;;;;3.10;2.80;;;10.20;99.90;;;;;;7392425;19;20164;-75
2022/11/29 08:49:32;;;;;;;4.30;3.50;;;10.30;99.90;;;;;;7397862;19;20149;-75
2022/11/29 08:54:42;;;;;;;2.93;2.60;;;10.20;99.90;;;;;;7396594;19;20188;-75
2022/11/29 08:57:08;;;;;;;3.67;2.93;;;10.20;99.90;;;;;;7399720;19;20540;-76
2022/11/29 08:59:34;;;;;;;3.20;2.90;;;10.20;99.90;;;;;;7394788;19;20206;-75
2022/11/29 09:02:00;;;;;;;4.30;3.20;;;10.20;99.90;;;;;;7393827;19;20160;-75
2022/11/29 09:04:26;;;;;;;3.87;3.23;;;10.20;99.90;;;;;;7395383;19;21019;-76
2022/11/29 09:06:51;;;;;;;2.93;2.27;;;10.20;99.90;;;;;;7395941;19;20135;-76
2022/11/29 09:09:17;;;;;;;4.33;3.10;;;10.10;99.90;;;;;;7394111;19;20154;-75
2022/11/29 09:11:43;;;;;;;4.23;3.00;;;10.20;99.90;;;;;;7396837;19;20169;-74
2022/11/29 09:14:14;;;;;;;3.83;2.83;;;10.30;99.90;;;;;;7394249;19;20139;-75
2022/11/29 09:16:40;;;;;;;3.23;2.70;;;10.30;99.90;;;;;;7396727;19;20149;-76
2022/11/29 09:19:06;;;;;;;3.60;3.00;;;10.20;99.90;;;;;;7394323;19;20190;-75
2022/11/29 09:21:35;;;;;;;4.57;3.27;;;10.20;99.90;;;;;;7393608;19;20264;-75
2022/11/29 09:24:05;;;;;;;4.03;3.30;;;10.40;99.90;;;;;;7393505;19;20167;-75
2022/11/29 09:26:36;;;;;;;4.30;3.27;;;10.30;99.90;;;;;;7391550;19;20220;-75
2022/11/29 09:29:04;;;;;;;4.37;3.87;;;10.30;99.90;;;;;;7393725;19;20154;-74
2022/11/29 09:31:31;;;;;;;5.03;4.07;;;10.30;99.90;;;;;;7394006;19;20217;-74
2022/11/29 09:33:57;;;;;;;4.63;3.70;;;10.30;99.90;;;;;;7394950;19;20154;-76
2022/11/29 09:36:24;;;;;;;6.07;3.77;;;10.30;99.90;;;;;;7395428;19;20301;-76
2022/11/29 09:38:49;;;;;;;6.00;3.90;;;10.30;99.90;;;;;;7394286;19;20591;-74
2022/11/29 09:41:49;;;;;;;7.97;4.73;;;10.30;99.90;;;;;;7395463;19;20138;-74
2022/11/29 09:44:26;;;;;;;6.17;4.93;;;10.30;99.90;;;;;;7390696;19;20241;-75
2022/11/29 09:47:16;;;;;;;6.90;4.73;;;10.30;99.90;;;;;;7394466;19;20158;-74
2022/11/29 09:50:02;;;;;;;6.07;4.50;;;10.20;99.90;;;;;;7394373;19;20142;-76
2022/11/29 09:52:28;;;;;;;6.50;4.57;;;10.30;99.90;;;;;;7393906;19;20142;-76
2022/11/29 09:55:28;;;;;;;6.03;4.20;;;10.20;99.90;;;;;;7393146;19;20197;-75
2022/11/29 09:57:57;;;;;;;7.30;5.17;;;10.20;99.90;;;;;;7394085;19;20709;-73
2022/11/29 10:00:23;;;;;;;6.33;4.67;;;10.20;99.90;;;;;;7397218;19;20139;-74
2022/11/29 10:03:08;;;;;;;8.03;5.00;;;10.20;99.90;;;;;;7393051;19;20218;-75
2022/11/29 10:05:43;;;;;;;6.53;5.50;;;10.30;99.90;;;;;;7393968;19;20135;-74
2022/11/29 10:08:12;;;;;;;8.73;5.80;;;10.10;99.90;;;;;;7395529;19;20206;-72
2022/11/29 10:10:47;;;;;;;9.77;6.77;;;10.10;99.90;;;;;;7396115;19;20134;-75
2022/11/29 10:13:28;;;;;;;12.60;7.93;;;10.10;99.90;;;;;;7393920;19;20138;-75
2022/11/29 10:15:59;;;;;;;11.30;7.57;;;10.20;99.90;;;;;;7391854;19;20213;-75
2022/11/29 10:18:37;;;;;;;14.80;8.63;;;10.30;99.90;;;;;;7396163;19;20513;-74
2022/11/29 10:21:13;;;;;;;11.70;7.90;;;10.10;99.90;;;;;;7392111;19;20146;-75
2022/11/29 10:23:49;;;;;;;12.83;8.37;;;10.10;99.90;;;;;;7393586;19;20138;-76
2022/11/29 10:26:15;;;;;;;13.53;8.47;;;10.10;99.90;;;;;;7390964;19;20482;-76
2022/11/29 10:28:43;;;;;;;15.40;9.37;;;10.00;99.90;;;;;;7391686;19;20250;-76
2022/11/29 10:31:34;;;;;;;13.03;9.07;;;10.10;99.90;;;;;;7392595;19;20238;-75
2022/11/29 10:34:06;;;;;;;15.90;9.27;;;10.20;99.90;;;;;;7392173;19;20489;-75
2022/11/29 10:36:40;;;;;;;14.00;9.07;;;10.20;99.90;;;;;;7392732;19;20621;-75
2022/11/29 10:39:35;;;;;;;13.40;8.33;;;10.20;99.90;;;;;;7392141;19;20154;-76
2022/11/29 10:42:03;;;;;;;10.77;7.93;;;10.30;99.90;;;;;;7391789;19;20150;-75
2022/11/29 10:44:31;;;;;;;12.63;8.57;;;10.30;99.90;;;;;;7392736;19;20145;-76
2022/11/29 10:47:01;;;;;;;13.83;8.17;;;10.20;99.90;;;;;;7391714;19;20198;-76
2022/11/29 10:49:28;;;;;;;11.93;7.83;;;10.20;99.90;;;;;;7395919;19;20164;-76
2022/11/29 10:51:55;;;;;;;9.23;6.87;;;10.20;99.90;;;;;;7393608;19;20680;-75
2022/11/29 10:54:28;;;;;;;12.27;7.30;;;10.40;99.90;;;;;;7390743;19;20162;-75
2022/11/29 10:56:57;;;;;;;11.13;7.40;;;10.20;99.90;;;;;;7393381;19;20174;-73
2022/11/29 10:59:26;;;;;;;10.80;6.23;;;10.20;99.90;;;;;;7392912;19;20146;-74
2022/11/29 11:01:52;;;;;;;9.37;6.10;;;10.20;99.90;;;;;;7393757;19;20198;-76
2022/11/29 11:04:32;;;;;;;9.47;7.43;;;10.10;99.90;;;;;;7391396;19;20142;-75
2022/11/29 11:07:01;;;;;;;8.63;5.80;;;10.20;99.90;;;;;;7391223;19;20138;-75
2022/11/29 11:09:39;;;;;;;8.23;5.80;;;10.30;99.90;;;;;;7394654;19;20146;-76
2022/11/29 11:12:14;;;;;;;7.37;5.30;;;10.30;99.90;;;;;;7389384;19;20154;-76
2022/11/29 11:14:40;;;;;;;9.80;5.33;;;10.30;99.90;;;;;;7392432;19;20535;-75
2022/11/29 11:17:21;;;;;;;10.67;5.40;;;10.30;99.90;;;;;;7397248;19;20146;-76
2022/11/29 11:20:07;;;;;;;8.70;5.60;;;10.20;99.90;;;;;;7392896;19;20218;-75
2022/11/29 11:22:38;;;;;;;7.83;5.93;;;10.30;99.90;;;;;;7391731;19;20138;-76
2022/11/29 11:25:05;;;;;;;9.17;7.20;;;10.20;99.90;;;;;;7391182;19;20138;-75
2022/11/29 11:27:38;;;;;;;10.97;6.73;;;10.20;99.90;;;;;;7390877;19;20147;-75
2022/11/29 11:30:16;;;;;;;11.40;7.23;;;10.30;99.90;;;;;;7389651;19;20164;-75
2022/11/29 11:33:19;;;;;;;10.53;8.20;;;10.30;99.90;;;;;;7389818;19;20148;-76
2022/11/29 11:36:05;;;;;;;9.30;6.70;;;10.20;99.90;;;;;;7388483;19;20177;-74
2022/11/29 11:38:58;;;;;;;10.90;7.53;;;10.20;99.90;;;;;;7389807;19;20157;-75
2022/11/29 11:44:35;;;;;;;9.97;7.17;;;10.30;99.90;;;;;;7386015;19;20162;-74
2022/11/29 11:47:05;;;;;;;11.50;7.40;;;10.20;99.90;;;;;;7394782;19;20143;-76
2022/11/29 11:49:36;;;;;;;8.60;6.77;;;10.30;99.90;;;;;;7396910;19;20135;-75
2022/11/29 11:52:04;;;;;;;10.57;7.70;;;10.20;99.90;;;;;;7396053;19;20147;-75
2022/11/29 11:54:31;;;;;;;8.83;6.77;;;10.30;99.90;;;;;;7398443;19;20254;-75
2022/11/29 11:56:58;;;;;;;10.83;7.73;;;10.30;99.90;;;;;;7398405;19;20213;-75
2022/11/29 11:59:25;;;;;;;11.97;8.80;;;10.30;99.90;;;;;;7397796;19;20134;-75
2022/11/29 12:01:52;;;;;;;10.40;7.47;;;10.30;99.90;;;;;;7399069;19;20143;-75
2022/11/29 12:04:31;;;;;;;9.77;7.13;;;10.20;99.90;;;;;;7397519;19;20149;-74
2022/11/29 12:07:12;;;;;;;10.00;6.93;;;10.30;99.90;;;;;;7399124;19;20149;-75
2022/11/29 12:09:58;;;;;;;9.20;6.70;;;10.20;99.90;;;;;;7398775;19;20126;-75
2022/11/29 12:12:28;;;;;;;9.33;6.40;;;10.20;99.90;;;;;;7399800;19;20745;-75
2022/11/29 12:15:17;;;;;;;7.07;6.27;;;10.10;99.90;;;;;;7397497;19;20615;-75
2022/11/29 12:17:51;;;;;;;7.97;5.47;;;10.10;99.90;;;;;;7397497;19;20590;-74
2022/11/29 12:20:23;;;;;;;6.47;5.20;;;10.10;99.90;;;;;;7398498;19;20505;-75
2022/11/29 12:23:13;;;;;;;7.10;4.60;;;10.10;99.90;;;;;;7396280;19;20206;-73
2022/11/29 12:26:04;;;;;;;6.03;4.13;;;10.30;99.90;;;;;;7395420;19;20131;-77
2022/11/29 12:28:37;;;;;;;7.67;4.80;;;10.50;99.90;;;;;;7398788;19;20338;-75
2022/11/29 12:31:21;;;;;;;4.60;3.90;;;10.60;99.90;;;;;;7396071;19;20255;-74
2022/11/29 12:33:53;;;;;;;5.63;4.27;;;10.60;99.90;;;;;;7396833;19;20126;-75
2022/11/29 12:36:53;;;;;;;5.03;3.90;;;10.60;99.90;;;;;;7394795;19;20127;-74
2022/11/29 12:39:22;;;;;;;5.87;4.20;;;10.70;99.90;;;;;;7398692;19;20158;-75
2022/11/29 12:42:23;;;;;;;5.13;4.10;;;10.80;99.90;;;;;;7395658;19;20155;-76
2022/11/29 12:45:26;;;;;;;5.77;4.63;;;10.80;99.90;;;;;;7393762;19;20159;-75
2022/11/29 12:47:58;;;;;;;5.10;4.40;;;10.90;99.90;;;;;;7394887;19;20157;-76
2022/11/29 12:50:46;;;;;;;4.77;4.17;;;10.90;99.90;;;;;;7396861;19;20149;-75
2022/11/29 12:53:17;;;;;;;6.47;5.27;;;10.80;99.90;;;;;;7397514;19;20142;-75
2022/11/29 12:56:20;;;;;;;5.90;5.10;;;10.60;99.90;;;;;;7393464;19;20564;-75
2022/11/29 12:59:02;;;;;;;8.53;4.67;;;10.40;99.90;;;;;;7394653;19;20279;-76
2022/11/29 13:01:59;;;;;;;6.90;5.47;;;10.20;99.90;;;;;;7394518;19;20145;-76
2022/11/29 13:04:54;;;;;;;6.07;4.77;;;10.20;99.90;;;;;;7393780;19;20223;-75
2022/11/29 13:07:29;;;;;;;6.27;5.10;;;10.20;99.90;;;;;;7392741;19;20150;-76
2022/11/29 13:10:12;;;;;;;5.83;5.00;;;10.10;99.90;;;;;;7395002;19;20138;-75
2022/11/29 13:12:50;;;;;;;6.00;5.00;;;10.20;99.90;;;;;;7394608;19;20158;-74
2022/11/29 13:15:22;;;;;;;7.60;5.50;;;10.10;99.90;;;;;;7397716;19;20149;-76
2022/11/29 13:18:32;;;;;;;8.83;5.60;;;10.10;99.90;;;;;;7394784;19;20150;-75
2022/11/29 13:21:06;;;;;;;6.30;5.30;;;10.20;99.90;;;;;;7394704;19;20151;-74
2022/11/29 13:23:42;;;;;;;6.13;5.20;;;10.20;99.90;;;;;;7393439;19;20143;-75
2022/11/29 13:26:10;;;;;;;7.50;5.33;;;10.20;99.90;;;;;;7394977;19;20238;-75
2022/11/29 13:28:39;;;;;;;7.50;4.97;;;10.20;99.90;;;;;;7393607;19;20222;-75
2022/11/29 13:31:08;;;;;;;7.23;5.80;;;10.20;99.90;;;;;;7395237;19;20497;-75
2022/11/29 13:33:54;;;;;;;7.53;5.93;;;10.30;99.90;;;;;;7395279;19;20214;-76
2022/11/29 13:36:31;;;;;;;7.80;6.13;;;10.30;99.90;;;;;;7394646;19;20141;-76
2022/11/29 13:39:31;;;;;;;8.50;6.33;;;10.20;99.90;;;;;;7395151;19;20146;-75
2022/11/29 13:42:16;;;;;;;7.20;5.13;;;10.20;99.90;;;;;;7396432;19;20161;-75
2022/11/29 13:45:04;;;;;;;5.67;4.63;;;10.20;99.90;;;;;;7394831;19;20235;-74
2022/11/29 13:47:31;;;;;;;4.97;4.13;;;10.10;99.90;;;;;;7394726;19;20127;-76